createdAt,value
2022-08-26T00:01:14.611Z,50.94
2022-08-26T00:03:45.210Z,50.67
2022-08-26T00:06:16.294Z,50.73
2022-08-26T00:08:51.565Z,49.58
2022-08-26T00:11:26.577Z,49.09
2022-08-26T00:13:58.592Z,49.84
2022-08-26T00:16:30.868Z,49.02
2022-08-26T00:19:01.936Z,49.56
2022-08-26T00:21:32.130Z,49.32
2022-08-26T00:24:02.267Z,48.99
2022-08-26T00:26:32.303Z,48.39
2022-08-26T00:29:02.768Z,48.92
2022-08-26T00:31:33.306Z,49.00
2022-08-26T00:34:03.737Z,48.46
2022-08-26T00:36:34.643Z,48.43
2022-08-26T00:39:05.046Z,48.38
2022-08-26T00:41:39.343Z,48.62
2022-08-26T00:44:13.076Z,49.07
2022-08-26T00:46:56.333Z,48.03
2022-08-26T00:49:52.758Z,49.03
2022-08-26T00:52:25.269Z,49.14
2022-08-26T00:55:09.151Z,49.72
2022-08-26T00:57:39.642Z,50.53
2022-08-26T01:00:17.461Z,50.25
2022-08-26T01:02:50.181Z,50.89
2022-08-26T01:05:21.994Z,50.54
2022-08-26T01:07:52.538Z,50.16
2022-08-26T01:10:26.602Z,49.93
2022-08-26T01:13:12.917Z,49.29
2022-08-26T01:15:50.982Z,49.04
2022-08-26T01:18:20.914Z,49.31
2022-08-26T01:21:03.141Z,49.10
2022-08-26T01:23:46.600Z,48.67
2022-08-26T01:26:26.580Z,48.75
2022-08-26T01:29:00.171Z,47.67
2022-08-26T01:31:39.064Z,48.12
2022-08-26T01:34:15.543Z,48.29
2022-08-26T01:36:51.370Z,46.47
2022-08-26T01:39:22.740Z,45.97
2022-08-26T01:41:55.737Z,47.96
2022-08-26T01:44:30.802Z,47.54
2022-08-26T01:47:03.348Z,45.56
2022-08-26T01:49:38.822Z,46.28
2022-08-26T01:52:11.868Z,43.53
2022-08-26T01:54:43.049Z,45.49
2022-08-26T01:57:18.718Z,46.26
2022-08-26T01:59:51.499Z,45.54
2022-08-26T02:02:21.779Z,45.35
2022-08-26T02:04:56.401Z,43.52
2022-08-26T02:07:28.263Z,41.53
2022-08-26T02:09:58.591Z,39.62
2022-08-26T02:12:33.577Z,37.46
2022-08-26T02:15:08.342Z,38.70
2022-08-26T02:17:48.875Z,34.48
2022-08-26T02:20:23.402Z,31.06
2022-08-26T02:22:53.777Z,31.61
2022-08-26T02:25:49.470Z,35.34
2022-08-26T02:28:20.305Z,32.31
2022-08-26T02:30:50.910Z,29.91
2022-08-26T02:33:21.195Z,33.23
2022-08-26T02:35:51.233Z,29.91
2022-08-26T02:38:24.824Z,30.08
2022-08-26T02:40:55.759Z,30.79
2022-08-26T02:43:31.732Z,31.19
2022-08-26T02:46:03.802Z,29.47
2022-08-26T02:48:34.888Z,27.32
2022-08-26T02:51:06.803Z,26.93
2022-08-26T02:53:37.119Z,26.78
2022-08-26T02:56:11.326Z,30.31
2022-08-26T02:58:41.631Z,28.55
2022-08-26T03:01:32.006Z,29.56
2022-08-26T03:04:05.788Z,28.63
2022-08-26T03:06:36.222Z,27.50
2022-08-26T03:09:08.078Z,27.47
2022-08-26T03:11:48.265Z,29.27
2022-08-26T03:15:24.161Z,31.03
2022-08-26T03:18:03.872Z,29.36
2022-08-26T03:21:04.408Z,31.78
2022-08-26T03:23:51.997Z,29.01
2022-08-26T03:26:22.560Z,26.85
2022-08-26T03:29:26.597Z,29.09
2022-08-26T03:32:05.780Z,24.80
2022-08-26T03:34:43.139Z,29.30
2022-08-26T03:37:13.408Z,28.60
2022-08-26T03:39:44.483Z,26.98
2022-08-26T03:42:24.816Z,28.51
2022-08-26T03:44:58.695Z,25.50
2022-08-26T03:47:52.803Z,26.14
2022-08-26T03:50:35.829Z,27.44
2022-08-26T03:53:21.240Z,27.42
2022-08-26T03:56:14.673Z,27.93
2022-08-26T03:58:57.965Z,26.23
2022-08-26T04:01:29.462Z,27.29
2022-08-26T04:04:01.935Z,26.38
2022-08-26T04:06:35.974Z,27.71
2022-08-26T04:09:15.406Z,26.02
2022-08-26T04:11:50.299Z,25.10
2022-08-26T04:14:25.294Z,26.96
2022-08-26T04:16:57.682Z,27.43
2022-08-26T04:19:29.321Z,27.48
2022-08-26T04:22:00.201Z,25.06
2022-08-26T04:24:32.316Z,26.73
2022-08-26T04:27:04.774Z,24.62
2022-08-26T04:29:40.379Z,27.17
2022-08-26T04:32:11.549Z,25.14
2022-08-26T04:34:43.444Z,26.50
2022-08-26T04:37:15.238Z,24.97
2022-08-26T04:39:44.948Z,23.14
2022-08-26T04:42:18.858Z,24.73
2022-08-26T04:44:53.875Z,22.81
2022-08-26T04:47:23.616Z,25.92
2022-08-26T04:49:57.947Z,24.77
2022-08-26T04:52:28.423Z,23.22
2022-08-26T04:54:58.972Z,24.52
2022-08-26T04:57:32.143Z,24.64
2022-08-26T05:00:03.330Z,25.34
2022-08-26T05:02:34.164Z,24.01
2022-08-26T05:05:06.783Z,24.38
2022-08-26T05:07:37.562Z,25.02
2022-08-26T05:10:09.871Z,24.46
2022-08-26T05:12:40.799Z,23.72
2022-08-26T05:15:15.942Z,23.57
2022-08-26T05:17:47.098Z,23.57
2022-08-26T05:20:22.618Z,23.66
2022-08-26T05:22:57.355Z,25.14
2022-08-26T05:25:27.519Z,24.99
2022-08-26T05:27:58.238Z,24.78
2022-08-26T05:30:28.619Z,23.96
2022-08-26T05:32:58.788Z,23.40
2022-08-26T05:35:35.448Z,24.83
2022-08-26T05:38:12.498Z,23.71
2022-08-26T05:40:52.843Z,23.24
2022-08-26T05:43:24.009Z,22.28
2022-08-26T05:45:56.954Z,23.03
2022-08-26T05:48:27.443Z,23.69
2022-08-26T05:50:57.485Z,22.89
2022-08-26T05:53:27.779Z,22.41
2022-08-26T05:55:59.881Z,22.10
2022-08-26T05:58:30.841Z,23.04
2022-08-26T06:01:05.013Z,22.39
2022-08-26T06:03:38.650Z,22.91
2022-08-26T06:06:12.617Z,23.38
2022-08-26T06:08:43.186Z,24.62
2022-08-26T06:11:18.520Z,25.78
2022-08-26T06:13:49.432Z,23.84
2022-08-26T06:16:22.668Z,25.28
2022-08-26T06:18:56.269Z,24.00
2022-08-26T06:21:31.250Z,24.89
2022-08-26T06:24:27.194Z,23.36
2022-08-26T06:27:02.611Z,25.07
2022-08-26T06:29:37.735Z,25.73
2022-08-26T06:32:08.790Z,24.79
2022-08-26T06:34:39.626Z,24.54
2022-08-26T06:37:10.124Z,25.96
2022-08-26T06:39:41.161Z,26.06
2022-08-26T06:42:12.160Z,25.95
2022-08-26T06:44:44.877Z,25.12
2022-08-26T06:47:15.227Z,24.80
2022-08-26T06:49:45.331Z,25.11
2022-08-26T06:52:16.509Z,25.71
2022-08-26T06:54:50.510Z,27.08
2022-08-26T06:57:21.357Z,27.17
2022-08-26T06:59:51.565Z,24.79
2022-08-26T07:02:21.770Z,23.42
2022-08-26T07:04:52.126Z,26.46
2022-08-26T07:07:26.772Z,21.67
2022-08-26T07:09:57.666Z,23.07
2022-08-26T07:12:27.807Z,23.24
2022-08-26T07:14:59.357Z,20.81
2022-08-26T07:17:29.922Z,20.98
2022-08-26T07:20:00.027Z,21.53
2022-08-26T07:22:30.268Z,23.36
2022-08-26T07:25:00.005Z,21.96
2022-08-26T07:27:30.307Z,23.93
2022-08-26T07:30:00.408Z,22.68
2022-08-26T07:32:33.478Z,22.98
2022-08-26T07:35:03.622Z,22.96
2022-08-26T07:37:35.518Z,22.48
2022-08-26T07:40:11.005Z,22.13
2022-08-26T07:42:41.745Z,23.45
2022-08-26T07:45:11.980Z,20.86
2022-08-26T07:47:42.009Z,21.50
2022-08-26T07:50:13.260Z,20.83
2022-08-26T07:52:44.003Z,21.33
2022-08-26T07:55:15.388Z,21.31
2022-08-26T07:57:46.584Z,21.01
2022-08-26T08:00:18.695Z,23.12
2022-08-26T08:02:50.494Z,23.38
2022-08-26T08:05:23.531Z,20.42
2022-08-26T08:08:27.390Z,20.93
2022-08-26T08:10:58.115Z,21.25
2022-08-26T08:13:30.894Z,21.25
2022-08-26T08:16:02.031Z,20.21
2022-08-26T08:18:32.396Z,21.32
2022-08-26T08:21:21.053Z,19.94
2022-08-26T08:23:55.709Z,19.57
2022-08-26T08:26:27.414Z,19.63
2022-08-26T08:28:59.435Z,19.17
2022-08-26T08:34:26.080Z,20.14
2022-08-26T08:36:56.301Z,19.49
2022-08-26T08:39:27.746Z,20.45
2022-08-26T08:42:12.850Z,22.39
2022-08-26T08:44:52.129Z,21.12
2022-08-26T08:47:39.420Z,21.60
2022-08-26T08:50:48.646Z,20.31
2022-08-26T08:53:32.462Z,20.26
2022-08-26T08:56:24.847Z,21.57
2022-08-26T08:59:16.274Z,21.18
2022-08-26T09:01:52.437Z,20.11
2022-08-26T09:04:57.947Z,22.80
2022-08-26T09:07:53.982Z,22.58
2022-08-26T09:10:48.956Z,23.05
2022-08-26T09:13:26.278Z,22.86
2022-08-26T09:16:20.690Z,21.34
2022-08-26T09:19:06.399Z,21.17
2022-08-26T09:21:37.323Z,21.56
2022-08-26T09:24:11.275Z,20.45
2022-08-26T09:26:49.773Z,20.39
2022-08-26T09:29:31.094Z,21.75
2022-08-26T09:32:26.766Z,21.67
2022-08-26T09:35:02.158Z,20.92
2022-08-26T09:37:53.168Z,24.14
2022-08-26T09:40:35.347Z,21.38
2022-08-26T09:43:14.900Z,25.14
2022-08-26T09:45:50.128Z,23.64
2022-08-26T09:48:36.222Z,24.43
2022-08-26T09:51:30.105Z,23.08
2022-08-26T09:54:08.089Z,25.06
2022-08-26T09:56:40.998Z,23.04
2022-08-26T09:59:14.039Z,24.31
2022-08-26T10:01:49.487Z,23.75
2022-08-26T10:04:27.522Z,25.37
2022-08-26T10:07:06.950Z,25.16
2022-08-26T10:09:44.324Z,27.04
2022-08-26T10:12:22.451Z,24.79
2022-08-26T10:14:58.084Z,23.70
2022-08-26T10:17:54.487Z,24.33
2022-08-26T10:20:39.759Z,25.63
2022-08-26T10:23:18.662Z,26.61
2022-08-26T10:25:56.959Z,26.49
2022-08-26T10:28:58.593Z,27.93
2022-08-26T10:31:28.847Z,26.90
2022-08-26T10:34:00.648Z,28.07
2022-08-26T10:39:57.027Z,28.62
2022-08-26T10:42:39.362Z,28.93
2022-08-26T10:45:19.445Z,29.49
2022-08-26T10:48:02.529Z,29.99
2022-08-26T10:50:39.884Z,30.51
2022-08-26T10:53:25.251Z,30.72
2022-08-26T10:56:18.766Z,30.63
2022-08-26T10:58:49.233Z,30.74
2022-08-26T11:01:53.584Z,30.61
2022-08-26T11:04:27.088Z,31.11
2022-08-26T11:07:31.726Z,30.98
2022-08-26T11:10:15.204Z,31.28
2022-08-26T11:12:49.188Z,31.32
2022-08-26T11:15:24.941Z,31.98
2022-08-26T11:17:57.518Z,32.30
2022-08-26T11:20:36.589Z,32.29
2022-08-26T11:23:25.029Z,32.21
2022-08-26T11:26:01.470Z,32.35
2022-08-26T11:28:37.085Z,32.57
2022-08-26T11:31:12.051Z,32.39
2022-08-26T11:33:59.717Z,32.09
2022-08-26T11:36:56.392Z,31.64
2022-08-26T11:39:36.916Z,31.87
2022-08-26T11:42:32.220Z,31.93
2022-08-26T11:45:05.764Z,32.02
2022-08-26T11:47:35.988Z,32.17
2022-08-26T11:50:15.283Z,32.52
2022-08-26T11:53:03.102Z,32.89
2022-08-26T11:55:36.077Z,33.30
2022-08-26T11:58:08.828Z,33.44
2022-08-26T12:01:09.813Z,33.02
2022-08-26T12:03:47.971Z,33.31
2022-08-26T12:06:31.542Z,32.48
2022-08-26T12:09:07.026Z,32.96
2022-08-26T12:11:40.755Z,32.87
2022-08-26T12:14:18.395Z,33.94
2022-08-26T12:16:49.163Z,34.10
2022-08-26T12:19:32.652Z,33.66
2022-08-26T12:22:09.539Z,34.65
2022-08-26T12:24:48.975Z,34.10
2022-08-26T12:27:38.603Z,34.38
2022-08-26T12:30:14.022Z,33.75
2022-08-26T12:32:58.085Z,33.89
2022-08-26T12:35:30.275Z,33.71
2022-08-26T12:38:03.414Z,34.15
2022-08-26T12:40:41.295Z,33.44
2022-08-26T12:43:14.983Z,33.69
2022-08-26T12:46:01.861Z,33.60
2022-08-26T12:48:38.683Z,33.66
2022-08-26T12:51:18.180Z,33.70
2022-08-26T12:53:51.440Z,33.97
2022-08-26T12:56:48.391Z,33.89
2022-08-26T12:59:27.489Z,33.53
2022-08-26T13:01:58.762Z,34.16
2022-08-26T13:04:44.911Z,33.76
2022-08-26T13:07:25.768Z,33.98
2022-08-26T13:09:58.945Z,33.66
2022-08-26T13:12:38.799Z,33.90
2022-08-26T13:15:09.753Z,33.74
2022-08-26T13:17:40.566Z,33.61
2022-08-26T13:20:11.309Z,33.64
2022-08-26T13:25:19.767Z,33.95
2022-08-26T13:27:50.405Z,33.87
2022-08-26T13:30:21.155Z,34.13
2022-08-26T13:33:03.060Z,33.83
2022-08-26T13:35:34.128Z,34.06
2022-08-26T13:38:04.637Z,34.12
2022-08-26T13:40:37.376Z,34.14
2022-08-26T13:43:07.676Z,34.31
2022-08-26T13:45:38.125Z,34.19
2022-08-26T13:48:09.787Z,34.22
2022-08-26T13:50:40.072Z,34.46
2022-08-26T13:53:10.403Z,34.61
2022-08-26T13:55:41.026Z,34.65
2022-08-26T13:58:12.417Z,34.65
2022-08-26T14:00:43.646Z,35.38
2022-08-26T14:03:14.037Z,35.55
2022-08-26T14:05:44.478Z,35.42
2022-08-26T14:08:14.717Z,35.11
2022-08-26T14:10:45.127Z,35.35
2022-08-26T14:13:15.955Z,35.15
2022-08-26T14:15:46.252Z,35.01
2022-08-26T14:18:20.566Z,34.85
2022-08-26T14:20:54.850Z,35.32
2022-08-26T14:23:25.295Z,34.69
2022-08-26T14:25:56.418Z,34.76
2022-08-26T14:28:27.292Z,35.13
2022-08-26T14:31:00.814Z,34.51
2022-08-26T14:33:34.712Z,34.56
2022-08-26T14:36:23.730Z,34.59
2022-08-26T14:38:55.857Z,34.53
2022-08-26T14:41:26.687Z,34.77
2022-08-26T14:44:04.006Z,34.75
2022-08-26T14:46:42.410Z,34.14
2022-08-26T14:49:16.433Z,33.82
2022-08-26T14:51:48.761Z,34.03
2022-08-26T14:54:20.680Z,33.97
2022-08-26T14:56:53.375Z,33.69
2022-08-26T14:59:30.057Z,33.66
2022-08-26T15:02:03.026Z,33.64
2022-08-26T15:04:33.879Z,34.16
2022-08-26T15:07:05.217Z,34.15
2022-08-26T15:09:38.812Z,34.46
2022-08-26T15:12:09.241Z,34.54
2022-08-26T15:14:39.644Z,33.81
2022-08-26T15:17:11.120Z,33.96
2022-08-26T15:19:41.797Z,33.74
2022-08-26T15:22:11.872Z,34.10
2022-08-26T15:24:42.546Z,34.49
2022-08-26T15:27:13.955Z,34.37
2022-08-26T15:29:47.921Z,34.34
2022-08-26T15:32:18.445Z,34.44
2022-08-26T15:34:54.462Z,34.73
2022-08-26T15:37:26.491Z,34.59
2022-08-26T15:39:58.530Z,35.00
2022-08-26T15:42:29.622Z,34.87
2022-08-26T15:45:00.277Z,34.51
2022-08-26T15:47:31.344Z,34.65
2022-08-26T15:50:06.108Z,34.29
2022-08-26T15:52:36.725Z,34.64
2022-08-26T15:55:07.459Z,34.46
2022-08-26T15:57:38.312Z,34.29
2022-08-26T16:00:10.667Z,33.88
2022-08-26T16:02:44.017Z,34.41
2022-08-26T16:05:14.618Z,34.48
2022-08-26T16:07:44.574Z,35.07
2022-08-26T16:10:14.702Z,35.71
2022-08-26T16:12:45.185Z,35.44
2022-08-26T16:15:18.649Z,35.78
2022-08-26T16:17:48.691Z,35.71
2022-08-26T16:20:21.795Z,35.34
2022-08-26T16:22:54.402Z,34.78
2022-08-26T16:25:25.059Z,34.67
2022-08-26T16:27:56.060Z,34.84
2022-08-26T16:30:26.723Z,34.36
2022-08-26T16:32:59.413Z,34.16
2022-08-26T16:35:29.916Z,34.05
2022-08-26T16:38:02.155Z,33.97
2022-08-26T16:40:32.700Z,33.25
2022-08-26T16:43:02.881Z,33.72
2022-08-26T16:45:33.180Z,33.79
2022-08-26T16:48:03.845Z,33.42
2022-08-26T16:50:34.652Z,32.85
2022-08-26T16:53:04.077Z,34.05
2022-08-26T16:55:35.932Z,34.08
2022-08-26T16:58:06.150Z,33.82
2022-08-26T17:00:36.227Z,33.52
2022-08-26T17:03:06.482Z,33.09
2022-08-26T17:05:38.137Z,32.77
2022-08-26T17:08:08.733Z,33.17
2022-08-26T17:10:39.159Z,33.13
2022-08-26T17:13:09.336Z,33.28
2022-08-26T17:15:39.585Z,33.45
2022-08-26T17:18:10.430Z,33.84
2022-08-26T17:20:40.579Z,34.45
2022-08-26T17:23:10.791Z,34.99
2022-08-26T17:25:40.306Z,35.60
2022-08-26T17:28:13.196Z,35.66
2022-08-26T17:30:44.153Z,36.04
2022-08-26T17:33:14.238Z,35.47
2022-08-26T17:35:47.459Z,35.88
2022-08-26T17:38:17.632Z,35.75
2022-08-26T17:40:47.012Z,35.78
2022-08-26T17:43:17.036Z,36.19
2022-08-26T17:45:47.455Z,36.25
2022-08-26T17:48:18.454Z,36.22
2022-08-26T17:50:49.368Z,36.36
2022-08-26T17:53:20.085Z,36.10
2022-08-26T17:55:51.165Z,35.88
2022-08-26T17:58:23.619Z,36.10
2022-08-26T18:00:55.985Z,35.78
2022-08-26T18:03:26.239Z,36.03
2022-08-26T18:05:56.360Z,35.97
2022-08-26T18:08:26.838Z,36.00
2022-08-26T18:10:56.894Z,36.31
2022-08-26T18:13:27.042Z,35.73
2022-08-26T18:15:57.072Z,35.88
2022-08-26T18:18:27.985Z,35.41
2022-08-26T18:21:07.237Z,35.62
2022-08-26T18:23:37.164Z,35.30
2022-08-26T18:26:07.784Z,35.47
2022-08-26T18:28:41.159Z,35.41
2022-08-26T18:31:14.339Z,35.21
2022-08-26T18:33:45.003Z,35.08
2022-08-26T18:36:25.018Z,34.56
2022-08-26T18:38:55.496Z,34.68
2022-08-26T18:41:30.015Z,34.23
2022-08-26T18:44:00.772Z,34.53
2022-08-26T18:46:31.107Z,34.24
2022-08-26T18:49:01.122Z,34.41
2022-08-26T18:51:34.242Z,33.81
2022-08-26T18:54:07.878Z,32.53
2022-08-26T18:56:40.514Z,32.81
2022-08-26T18:59:11.498Z,31.98
2022-08-26T19:01:43.657Z,32.77
2022-08-26T19:04:15.586Z,32.99
2022-08-26T19:06:48.819Z,33.49
2022-08-26T19:09:20.966Z,33.73
2022-08-26T19:11:51.059Z,33.47
2022-08-26T19:14:21.233Z,33.37
2022-08-26T19:16:53.731Z,33.46
2022-08-26T19:19:28.108Z,33.39
2022-08-26T19:21:58.328Z,33.66
2022-08-26T19:24:29.477Z,33.99
2022-08-26T19:27:03.821Z,33.72
2022-08-26T19:29:36.845Z,32.97
2022-08-26T19:32:08.394Z,33.38
2022-08-26T19:34:39.569Z,33.14
2022-08-26T19:37:09.648Z,33.44
2022-08-26T19:39:40.069Z,33.52
2022-08-26T19:42:09.989Z,33.34
2022-08-26T19:44:58.098Z,33.01
2022-08-26T19:47:28.217Z,33.00
2022-08-26T19:49:59.112Z,33.18
2022-08-26T19:52:29.957Z,33.11
2022-08-26T19:55:02.242Z,33.70
2022-08-26T19:57:32.591Z,32.79
2022-08-26T20:00:02.771Z,33.17
2022-08-26T20:02:35.362Z,33.50
2022-08-26T20:05:07.799Z,32.51
2022-08-26T20:07:38.194Z,31.74
2022-08-26T20:10:11.204Z,31.50
2022-08-26T20:12:43.010Z,31.56
2022-08-26T20:15:14.444Z,32.09
2022-08-26T20:17:47.666Z,29.76
2022-08-26T20:20:37.765Z,30.20
2022-08-26T20:23:07.918Z,30.03
2022-08-26T20:25:37.948Z,29.91
2022-08-26T20:28:08.028Z,30.69
2022-08-26T20:30:38.069Z,31.48
2022-08-26T20:33:08.150Z,30.55
2022-08-26T20:35:38.299Z,31.48
2022-08-26T20:38:08.598Z,31.07
2022-08-26T20:40:38.818Z,29.83
2022-08-26T20:43:08.885Z,29.01
2022-08-26T20:45:38.924Z,29.60
2022-08-26T20:48:09.363Z,30.38
2022-08-26T20:50:40.335Z,30.52
2022-08-26T20:53:10.419Z,30.48
2022-08-26T20:55:40.882Z,29.80
2022-08-26T20:58:10.328Z,29.25
2022-08-26T21:00:41.002Z,31.37
2022-08-26T21:03:11.362Z,28.88
2022-08-26T21:05:41.359Z,29.78
2022-08-26T21:08:11.625Z,28.79
2022-08-26T21:10:42.684Z,29.77
2022-08-26T21:13:13.443Z,29.72
2022-08-26T21:15:43.602Z,28.91
2022-08-26T21:18:13.885Z,28.28
2022-08-26T21:20:43.874Z,28.61
2022-08-26T21:23:16.037Z,29.30
2022-08-26T21:25:47.085Z,28.79
2022-08-26T21:28:18.543Z,28.89
2022-08-26T21:30:48.718Z,28.92
2022-08-26T21:33:18.767Z,28.53
2022-08-26T21:35:57.939Z,29.51
2022-08-26T21:38:28.558Z,29.50
2022-08-26T21:41:16.629Z,30.17
2022-08-26T21:43:47.532Z,29.94
2022-08-26T21:46:23.249Z,31.00
2022-08-26T21:48:59.950Z,30.85
2022-08-26T21:51:33.488Z,31.52
2022-08-26T21:54:09.926Z,31.75
2022-08-26T21:56:47.983Z,30.67
2022-08-26T21:59:20.435Z,31.64
2022-08-26T22:01:52.426Z,31.00
2022-08-26T22:04:23.220Z,31.51
2022-08-26T22:06:56.722Z,31.32
2022-08-26T22:09:29.193Z,31.97
2022-08-26T22:12:00.224Z,31.92
2022-08-26T22:14:31.072Z,32.65
2022-08-26T22:17:03.789Z,32.72
2022-08-26T22:19:34.164Z,34.36
2022-08-26T22:22:17.228Z,33.17
2022-08-26T22:24:47.227Z,32.55
2022-08-26T22:27:17.249Z,32.23
2022-08-26T22:29:49.271Z,32.99
2022-08-26T22:32:19.841Z,32.96
2022-08-26T22:34:49.917Z,34.58
2022-08-26T22:37:19.928Z,34.97
2022-08-26T22:39:50.008Z,35.60
2022-08-26T22:42:20.100Z,35.40
2022-08-26T22:44:50.568Z,35.97
2022-08-26T22:47:20.635Z,35.98
2022-08-26T22:49:50.789Z,36.34
2022-08-26T22:52:20.791Z,36.68
2022-08-26T22:54:50.903Z,36.25
2022-08-26T22:57:22.368Z,37.17
2022-08-26T22:59:52.440Z,36.83
2022-08-26T23:02:23.492Z,37.71
2022-08-26T23:04:53.699Z,37.15
2022-08-26T23:07:24.705Z,36.52
2022-08-26T23:09:54.725Z,37.02
2022-08-26T23:12:24.201Z,37.19
2022-08-26T23:14:54.263Z,37.28
2022-08-26T23:17:24.724Z,37.32
2022-08-26T23:19:56.669Z,36.96
2022-08-26T23:22:31.149Z,35.79
2022-08-26T23:25:07.804Z,35.23
2022-08-26T23:27:41.275Z,35.47
2022-08-26T23:30:18.197Z,35.95
2022-08-26T23:32:49.645Z,35.59
2022-08-26T23:35:24.451Z,34.71
2022-08-26T23:37:55.859Z,33.67
2022-08-26T23:40:36.184Z,34.70
2022-08-26T23:43:09.536Z,34.79
2022-08-26T23:45:39.269Z,33.86
2022-08-26T23:48:09.486Z,34.70
2022-08-26T23:50:57.545Z,34.76
2022-08-26T23:53:27.629Z,34.98
2022-08-26T23:55:57.863Z,34.76
2022-08-26T23:58:27.922Z,33.66
